sensor_id;sensor_type;location;lat;lon;timestamp;pressure;altitude;pressure_sealevel;temperature;humidity
74895;BME280;63447;49.446;8.666;2023-05-29T00:01:16;100389.78;;;19.21;37.99
74895;BME280;63447;49.446;8.666;2023-05-29T00:03:46;100387.78;;;19.18;37.93
74895;BME280;63447;49.446;8.666;2023-05-29T00:06:13;100379.75;;;19.13;38.03
74895;BME280;63447;49.446;8.666;2023-05-29T00:08:43;100388.19;;;19.20;37.88
74895;BME280;63447;49.446;8.666;2023-05-29T00:11:12;100390.53;;;19.11;37.58
74895;BME280;63447;49.446;8.666;2023-05-29T00:13:40;100393.00;;;19.27;37.54
74895;BME280;63447;49.446;8.666;2023-05-29T00:16:05;100378.09;;;19.05;37.49
74895;BME280;63447;49.446;8.666;2023-05-29T00:18:31;100382.50;;;19.06;37.79
74895;BME280;63447;49.446;8.666;2023-05-29T00:20:56;100379.72;;;19.10;38.05
74895;BME280;63447;49.446;8.666;2023-05-29T00:23:26;100372.88;;;19.04;37.37
74895;BME280;63447;49.446;8.666;2023-05-29T00:25:53;100382.13;;;19.11;37.32
74895;BME280;63447;49.446;8.666;2023-05-29T00:28:19;100392.47;;;19.07;37.55
74895;BME280;63447;49.446;8.666;2023-05-29T00:30:49;100368.03;;;18.97;37.52
74895;BME280;63447;49.446;8.666;2023-05-29T00:33:17;100372.44;;;18.94;37.33
74895;BME280;63447;49.446;8.666;2023-05-29T00:35:43;100354.72;;;18.76;37.20
74895;BME280;63447;49.446;8.666;2023-05-29T00:38:09;100376.34;;;18.86;37.42
74895;BME280;63447;49.446;8.666;2023-05-29T00:40:34;100385.63;;;18.97;37.50
74895;BME280;63447;49.446;8.666;2023-05-29T00:42:59;100388.03;;;18.95;37.02
74895;BME280;63447;49.446;8.666;2023-05-29T00:45:24;100367.16;;;18.86;37.22
74895;BME280;63447;49.446;8.666;2023-05-29T00:47:51;100373.22;;;18.91;37.24
74895;BME280;63447;49.446;8.666;2023-05-29T00:50:17;100381.25;;;18.96;37.27
74895;BME280;63447;49.446;8.666;2023-05-29T00:52:44;100336.72;;;18.74;36.79
74895;BME280;63447;49.446;8.666;2023-05-29T00:55:13;100381.97;;;18.90;37.35
74895;BME280;63447;49.446;8.666;2023-05-29T00:57:39;100378.34;;;18.86;37.38
74895;BME280;63447;49.446;8.666;2023-05-29T01:00:05;100387.22;;;18.95;37.05
74895;BME280;63447;49.446;8.666;2023-05-29T01:02:40;100388.75;;;18.89;37.14
74895;BME280;63447;49.446;8.666;2023-05-29T01:05:06;100390.38;;;18.90;37.45
74895;BME280;63447;49.446;8.666;2023-05-29T01:07:32;100380.69;;;18.80;37.28
74895;BME280;63447;49.446;8.666;2023-05-29T01:09:58;100394.78;;;18.91;37.51
74895;BME280;63447;49.446;8.666;2023-05-29T01:15:24;100397.09;;;18.82;37.27
74895;BME280;63447;49.446;8.666;2023-05-29T01:18:33;100402.28;;;18.83;37.17
74895;BME280;63447;49.446;8.666;2023-05-29T01:29:07;100393.44;;;18.34;39.60
74895;BME280;63447;49.446;8.666;2023-05-29T01:31:37;100394.56;;;18.29;39.75
74895;BME280;63447;49.446;8.666;2023-05-29T01:34:06;100378.50;;;18.15;40.50
74895;BME280;63447;49.446;8.666;2023-05-29T01:36:32;100395.69;;;18.21;40.34
74895;BME280;63447;49.446;8.666;2023-05-29T01:38:58;100389.66;;;18.15;40.21
74895;BME280;63447;49.446;8.666;2023-05-29T01:41:25;100376.72;;;18.00;40.56
74895;BME280;63447;49.446;8.666;2023-05-29T01:43:52;100371.47;;;17.91;40.64
74895;BME280;63447;49.446;8.666;2023-05-29T01:46:20;100389.88;;;18.00;40.96
74895;BME280;63447;49.446;8.666;2023-05-29T01:48:47;100375.00;;;17.88;41.45
74895;BME280;63447;49.446;8.666;2023-05-29T01:51:13;100381.78;;;17.87;41.66
74895;BME280;63447;49.446;8.666;2023-05-29T01:53:43;100372.88;;;17.78;40.79
74895;BME280;63447;49.446;8.666;2023-05-29T01:56:09;100392.50;;;17.85;41.49
74895;BME280;63447;49.446;8.666;2023-05-29T01:58:36;100396.09;;;17.86;41.33
74895;BME280;63447;49.446;8.666;2023-05-29T02:01:05;100376.75;;;17.67;41.55
74895;BME280;63447;49.446;8.666;2023-05-29T02:03:31;100388.31;;;17.69;42.20
74895;BME280;63447;49.446;8.666;2023-05-29T02:05:59;100398.66;;;17.68;42.50
74895;BME280;63447;49.446;8.666;2023-05-29T02:08:27;100378.41;;;17.45;42.54
74895;BME280;63447;49.446;8.666;2023-05-29T02:10:55;100399.16;;;17.47;42.71
74895;BME280;63447;49.446;8.666;2023-05-29T02:13:21;100403.50;;;17.45;42.90
74895;BME280;63447;49.446;8.666;2023-05-29T02:15:46;100403.44;;;17.41;42.64
74895;BME280;63447;49.446;8.666;2023-05-29T02:18:14;100406.22;;;17.38;42.80
74895;BME280;63447;49.446;8.666;2023-05-29T02:20:40;100404.50;;;17.29;43.04
74895;BME280;63447;49.446;8.666;2023-05-29T02:23:08;100400.38;;;17.20;43.14
74895;BME280;63447;49.446;8.666;2023-05-29T02:25:34;100389.81;;;17.06;42.93
74895;BME280;63447;49.446;8.666;2023-05-29T02:28:04;100408.59;;;17.09;43.43
74895;BME280;63447;49.446;8.666;2023-05-29T02:30:32;100420.53;;;17.10;43.82
74895;BME280;63447;49.446;8.666;2023-05-29T02:33:00;100417.16;;;16.97;44.66
74895;BME280;63447;49.446;8.666;2023-05-29T02:35:28;100417.50;;;16.95;44.80
74895;BME280;63447;49.446;8.666;2023-05-29T02:37:53;100411.88;;;16.92;45.42
74895;BME280;63447;49.446;8.666;2023-05-29T02:40:19;100413.72;;;16.81;45.44
74895;BME280;63447;49.446;8.666;2023-05-29T02:42:45;100414.94;;;16.83;45.54
74895;BME280;63447;49.446;8.666;2023-05-29T02:45:10;100416.94;;;16.83;45.58
74895;BME280;63447;49.446;8.666;2023-05-29T02:47:36;100398.66;;;16.62;46.92
74895;BME280;63447;49.446;8.666;2023-05-29T02:50:04;100407.88;;;16.67;47.05
74895;BME280;63447;49.446;8.666;2023-05-29T02:52:32;100402.72;;;16.46;47.25
74895;BME280;63447;49.446;8.666;2023-05-29T02:54:57;100414.56;;;16.62;47.55
74895;BME280;63447;49.446;8.666;2023-05-29T02:57:25;100413.97;;;16.30;48.57
74895;BME280;63447;49.446;8.666;2023-05-29T02:59:51;100430.53;;;16.23;48.68
74895;BME280;63447;49.446;8.666;2023-05-29T03:02:19;100413.97;;;16.30;49.34
74895;BME280;63447;49.446;8.666;2023-05-29T03:04:45;100404.09;;;16.13;49.53
74895;BME280;63447;49.446;8.666;2023-05-29T03:07:12;100419.94;;;16.09;50.00
74895;BME280;63447;49.446;8.666;2023-05-29T03:09:38;100419.81;;;16.02;50.35
74895;BME280;63447;49.446;8.666;2023-05-29T03:12:03;100415.19;;;15.90;50.52
74895;BME280;63447;49.446;8.666;2023-05-29T03:14:29;100412.19;;;15.80;50.89
74895;BME280;63447;49.446;8.666;2023-05-29T03:16:57;100426.75;;;15.92;50.69
74895;BME280;63447;49.446;8.666;2023-05-29T03:19:24;100416.28;;;15.67;50.62
74895;BME280;63447;49.446;8.666;2023-05-29T03:21:49;100421.19;;;15.73;51.68
74895;BME280;63447;49.446;8.666;2023-05-29T03:24:17;100422.81;;;15.74;51.55
74895;BME280;63447;49.446;8.666;2023-05-29T03:26:42;100410.34;;;15.68;51.66
74895;BME280;63447;49.446;8.666;2023-05-29T03:29:08;100414.38;;;15.71;51.62
74895;BME280;63447;49.446;8.666;2023-05-29T03:31:35;100366.63;;;15.30;51.53
74895;BME280;63447;49.446;8.666;2023-05-29T03:34:01;100401.38;;;15.40;52.24
74895;BME280;63447;49.446;8.666;2023-05-29T03:36:26;100420.84;;;15.40;52.50
74895;BME280;63447;49.446;8.666;2023-05-29T03:38:52;100427.28;;;15.44;52.69
74895;BME280;63447;49.446;8.666;2023-05-29T03:41:17;100429.59;;;15.22;53.33
74895;BME280;63447;49.446;8.666;2023-05-29T03:43:44;100436.94;;;15.15;54.24
74895;BME280;63447;49.446;8.666;2023-05-29T03:46:10;100433.16;;;15.23;53.84
74895;BME280;63447;49.446;8.666;2023-05-29T03:48:35;100434.78;;;15.24;53.46
74895;BME280;63447;49.446;8.666;2023-05-29T03:51:00;100427.84;;;14.99;54.44
74895;BME280;63447;49.446;8.666;2023-05-29T03:53:26;100436.00;;;14.91;54.43
74895;BME280;63447;49.446;8.666;2023-05-29T03:55:51;100430.97;;;14.97;54.51
74895;BME280;63447;49.446;8.666;2023-05-29T03:58:16;100417.72;;;14.75;55.49
74895;BME280;63447;49.446;8.666;2023-05-29T04:00:42;100442.16;;;14.85;55.73
74895;BME280;63447;49.446;8.666;2023-05-29T04:03:08;100454.28;;;14.77;55.36
74895;BME280;63447;49.446;8.666;2023-05-29T04:05:33;100367.34;;;14.29;55.33
74895;BME280;63447;49.446;8.666;2023-05-29T04:07:58;100463.22;;;14.86;55.37
74895;BME280;63447;49.446;8.666;2023-05-29T04:10:24;100467.00;;;14.93;55.61
74895;BME280;63447;49.446;8.666;2023-05-29T04:12:51;100473.00;;;14.96;55.35
74895;BME280;63447;49.446;8.666;2023-05-29T04:15:17;100446.66;;;14.89;54.97
74895;BME280;63447;49.446;8.666;2023-05-29T04:17:42;100477.59;;;15.04;55.48
74895;BME280;63447;49.446;8.666;2023-05-29T04:20:08;100472.19;;;14.95;56.39
74895;BME280;63447;49.446;8.666;2023-05-29T04:22:39;100478.91;;;15.10;55.35
74895;BME280;63447;49.446;8.666;2023-05-29T04:25:04;100481.94;;;15.20;55.83
74895;BME280;63447;49.446;8.666;2023-05-29T04:27:32;100483.03;;;15.32;55.30
74895;BME280;63447;49.446;8.666;2023-05-29T04:30:05;100456.41;;;15.15;56.19
74895;BME280;63447;49.446;8.666;2023-05-29T04:32:31;100466.75;;;15.34;55.32
74895;BME280;63447;49.446;8.666;2023-05-29T04:34:59;100497.06;;;15.54;55.26
74895;BME280;63447;49.446;8.666;2023-05-29T04:37:30;100500.47;;;15.64;55.45
74895;BME280;63447;49.446;8.666;2023-05-29T04:39:57;100506.63;;;15.73;55.37
74895;BME280;63447;49.446;8.666;2023-05-29T04:42:22;100507.59;;;15.80;54.19
74895;BME280;63447;49.446;8.666;2023-05-29T04:44:52;100503.50;;;15.74;54.09
74895;BME280;63447;49.446;8.666;2023-05-29T04:47:19;100511.78;;;15.90;52.64
74895;BME280;63447;49.446;8.666;2023-05-29T04:49:45;100515.09;;;15.95;52.60
74895;BME280;63447;49.446;8.666;2023-05-29T04:52:17;100506.09;;;16.02;51.59
74895;BME280;63447;49.446;8.666;2023-05-29T04:54:42;100491.56;;;15.93;52.18
74895;BME280;63447;49.446;8.666;2023-05-29T04:57:08;100516.69;;;16.16;50.80
74895;BME280;63447;49.446;8.666;2023-05-29T04:59:34;100504.53;;;16.24;50.59
74895;BME280;63447;49.446;8.666;2023-05-29T05:02:00;100505.13;;;16.33;49.86
74895;BME280;63447;49.446;8.666;2023-05-29T05:04:25;100523.66;;;16.45;49.18
74895;BME280;63447;49.446;8.666;2023-05-29T05:06:52;100523.94;;;16.40;49.32
74895;BME280;63447;49.446;8.666;2023-05-29T05:09:18;100510.09;;;16.43;50.77
74895;BME280;63447;49.446;8.666;2023-05-29T05:11:43;100535.31;;;16.31;51.65
74895;BME280;63447;49.446;8.666;2023-05-29T05:14:09;100508.44;;;16.00;51.89
74895;BME280;63447;49.446;8.666;2023-05-29T05:16:34;100530.56;;;16.32;52.05
74895;BME280;63447;49.446;8.666;2023-05-29T05:18:59;100530.63;;;16.54;50.64
74895;BME280;63447;49.446;8.666;2023-05-29T05:21:25;100549.59;;;16.68;50.54
74895;BME280;63447;49.446;8.666;2023-05-29T05:23:50;100545.28;;;16.71;49.75
74895;BME280;63447;49.446;8.666;2023-05-29T05:26:18;100551.59;;;16.90;49.34
74895;BME280;63447;49.446;8.666;2023-05-29T05:28:43;100546.69;;;17.03;49.02
74895;BME280;63447;49.446;8.666;2023-05-29T05:31:08;100515.88;;;16.96;49.08
74895;BME280;63447;49.446;8.666;2023-05-29T05:33:34;100552.38;;;17.10;48.16
74895;BME280;63447;49.446;8.666;2023-05-29T05:36:01;100547.41;;;17.00;48.76
74895;BME280;63447;49.446;8.666;2023-05-29T05:38:27;100565.38;;;17.25;48.56
74895;BME280;63447;49.446;8.666;2023-05-29T05:40:52;100524.81;;;17.05;47.84
74895;BME280;63447;49.446;8.666;2023-05-29T05:43:17;100556.78;;;17.34;48.43
74895;BME280;63447;49.446;8.666;2023-05-29T05:45:43;100557.31;;;17.20;49.96
74895;BME280;63447;49.446;8.666;2023-05-29T05:48:08;100545.94;;;17.29;48.73
74895;BME280;63447;49.446;8.666;2023-05-29T05:50:34;100527.53;;;17.24;48.84
74895;BME280;63447;49.446;8.666;2023-05-29T05:53:02;100560.16;;;17.47;47.98
74895;BME280;63447;49.446;8.666;2023-05-29T05:55:27;100556.84;;;17.64;48.85
74895;BME280;63447;49.446;8.666;2023-05-29T05:57:55;100550.38;;;17.83;49.37
74895;BME280;63447;49.446;8.666;2023-05-29T06:00:22;100557.16;;;17.82;48.62
74895;BME280;63447;49.446;8.666;2023-05-29T06:02:48;100562.47;;;17.90;48.09
74895;BME280;63447;49.446;8.666;2023-05-29T06:05:16;100561.97;;;17.85;49.19
74895;BME280;63447;49.446;8.666;2023-05-29T06:07:44;100553.16;;;18.09;46.97
74895;BME280;63447;49.446;8.666;2023-05-29T06:10:09;100538.22;;;17.98;47.33
74895;BME280;63447;49.446;8.666;2023-05-29T06:12:35;100560.94;;;18.26;45.79
74895;BME280;63447;49.446;8.666;2023-05-29T06:15:01;100553.69;;;18.18;47.98
74895;BME280;63447;49.446;8.666;2023-05-29T06:17:28;100569.59;;;18.48;46.52
74895;BME280;63447;49.446;8.666;2023-05-29T06:19:54;100569.56;;;18.44;46.08
74895;BME280;63447;49.446;8.666;2023-05-29T06:22:20;100555.88;;;18.66;45.73
74895;BME280;63447;49.446;8.666;2023-05-29T06:24:45;100569.63;;;18.81;45.83
74895;BME280;63447;49.446;8.666;2023-05-29T06:27:10;100554.38;;;18.75;46.99
74895;BME280;63447;49.446;8.666;2023-05-29T06:29:36;100562.00;;;18.78;47.11
74895;BME280;63447;49.446;8.666;2023-05-29T06:32:03;100568.38;;;18.79;46.79
74895;BME280;63447;49.446;8.666;2023-05-29T06:34:29;100552.03;;;18.81;48.38
74895;BME280;63447;49.446;8.666;2023-05-29T06:36:54;100556.38;;;19.15;45.72
74895;BME280;63447;49.446;8.666;2023-05-29T06:39:19;100579.59;;;19.19;44.64
74895;BME280;63447;49.446;8.666;2023-05-29T06:41:45;100576.16;;;19.37;46.86
74895;BME280;63447;49.446;8.666;2023-05-29T06:44:11;100571.03;;;19.49;44.77
74895;BME280;63447;49.446;8.666;2023-05-29T06:46:36;100558.59;;;19.40;45.67
74895;BME280;63447;49.446;8.666;2023-05-29T06:49:01;100559.94;;;19.56;45.50
74895;BME280;63447;49.446;8.666;2023-05-29T06:51:29;100576.44;;;19.69;45.38
74895;BME280;63447;49.446;8.666;2023-05-29T06:53:54;100570.13;;;19.82;44.33
74895;BME280;63447;49.446;8.666;2023-05-29T06:56:20;100570.13;;;19.82;43.81
74895;BME280;63447;49.446;8.666;2023-05-29T06:58:46;100556.47;;;19.77;44.97
74895;BME280;63447;49.446;8.666;2023-05-29T07:01:11;100579.88;;;20.06;43.34
74895;BME280;63447;49.446;8.666;2023-05-29T07:03:36;100582.75;;;20.17;43.43
74895;BME280;63447;49.446;8.666;2023-05-29T07:06:02;100565.53;;;20.15;43.12
74895;BME280;63447;49.446;8.666;2023-05-29T07:08:28;100573.22;;;20.32;43.83
74895;BME280;63447;49.446;8.666;2023-05-29T07:10:53;100584.88;;;20.38;43.11
74895;BME280;63447;49.446;8.666;2023-05-29T07:13:19;100590.53;;;20.48;42.91
74895;BME280;63447;49.446;8.666;2023-05-29T07:15:44;100580.09;;;20.42;43.05
74895;BME280;63447;49.446;8.666;2023-05-29T07:18:10;100595.31;;;20.44;42.37
74895;BME280;63447;49.446;8.666;2023-05-29T07:20:36;100596.13;;;20.45;42.43
74895;BME280;63447;49.446;8.666;2023-05-29T07:23:02;100582.91;;;20.45;42.41
74895;BME280;63447;49.446;8.666;2023-05-29T07:25:27;100594.59;;;20.61;42.84
74895;BME280;63447;49.446;8.666;2023-05-29T07:27:52;100594.63;;;20.69;42.65
74895;BME280;63447;49.446;8.666;2023-05-29T07:30:22;100591.41;;;20.66;41.57
74895;BME280;63447;49.446;8.666;2023-05-29T07:32:52;100597.78;;;20.60;42.22
74895;BME280;63447;49.446;8.666;2023-05-29T07:35:22;100585.38;;;20.61;42.86
74895;BME280;63447;49.446;8.666;2023-05-29T07:37:48;100603.44;;;20.71;42.52
74895;BME280;63447;49.446;8.666;2023-05-29T07:40:14;100605.03;;;20.68;42.05
74895;BME280;63447;49.446;8.666;2023-05-29T07:42:40;100592.19;;;20.60;42.11
74895;BME280;63447;49.446;8.666;2023-05-29T07:45:10;100600.66;;;20.71;42.12
74895;BME280;63447;49.446;8.666;2023-05-29T07:47:36;100612.72;;;20.89;43.06
74895;BME280;63447;49.446;8.666;2023-05-29T07:50:02;100605.53;;;21.06;42.82
74895;BME280;63447;49.446;8.666;2023-05-29T07:52:27;100577.06;;;20.93;43.20
74895;BME280;63447;49.446;8.666;2023-05-29T07:54:52;100610.78;;;21.14;42.61
74895;BME280;63447;49.446;8.666;2023-05-29T07:57:20;100593.13;;;21.10;42.58
74895;BME280;63447;49.446;8.666;2023-05-29T07:59:45;100621.25;;;21.35;41.53
74895;BME280;63447;49.446;8.666;2023-05-29T08:02:14;100614.84;;;21.42;42.21
74895;BME280;63447;49.446;8.666;2023-05-29T08:04:40;100622.88;;;21.47;42.03
74895;BME280;63447;49.446;8.666;2023-05-29T08:07:06;100618.88;;;21.51;41.84
74895;BME280;63447;49.446;8.666;2023-05-29T08:09:31;100612.88;;;21.53;42.03
74895;BME280;63447;49.446;8.666;2023-05-29T08:11:59;100603.63;;;21.56;41.49
74895;BME280;63447;49.446;8.666;2023-05-29T08:14:26;100618.06;;;21.72;39.44
74895;BME280;63447;49.446;8.666;2023-05-29T08:16:55;100619.69;;;21.73;40.62
74895;BME280;63447;49.446;8.666;2023-05-29T08:19:20;100610.84;;;21.71;41.09
74895;BME280;63447;49.446;8.666;2023-05-29T08:21:45;100582.75;;;21.71;41.26
74895;BME280;63447;49.446;8.666;2023-05-29T08:24:11;100615.25;;;21.76;40.54
74895;BME280;63447;49.446;8.666;2023-05-29T08:26:36;100612.03;;;21.91;40.71
74895;BME280;63447;49.446;8.666;2023-05-29T08:29:01;100618.44;;;21.95;40.42
74895;BME280;63447;49.446;8.666;2023-05-29T08:31:27;100620.44;;;22.09;39.97
74895;BME280;63447;49.446;8.666;2023-05-29T08:33:53;100613.25;;;22.01;40.46
74895;BME280;63447;49.446;8.666;2023-05-29T08:36:19;100615.63;;;21.99;37.74
74895;BME280;63447;49.446;8.666;2023-05-29T08:38:48;100595.59;;;22.08;40.06
74895;BME280;63447;49.446;8.666;2023-05-29T08:44:21;100600.69;;;22.38;38.76
74895;BME280;63447;49.446;8.666;2023-05-29T08:46:47;100605.91;;;22.46;40.54
74895;BME280;63447;49.446;8.666;2023-05-29T08:49:17;100589.03;;;22.46;39.83
74895;BME280;63447;49.446;8.666;2023-05-29T08:51:45;100610.66;;;22.63;39.09
74895;BME280;63447;49.446;8.666;2023-05-29T08:54:14;100601.78;;;22.72;38.65
74895;BME280;63447;49.446;8.666;2023-05-29T08:56:41;100591.66;;;22.89;38.11
74895;BME280;63447;49.446;8.666;2023-05-29T08:59:08;100602.13;;;22.88;37.03
74895;BME280;63447;49.446;8.666;2023-05-29T09:01:37;100604.50;;;22.97;36.86
74895;BME280;63447;49.446;8.666;2023-05-29T09:04:04;100598.72;;;23.18;37.65
74895;BME280;63447;49.446;8.666;2023-05-29T09:06:33;100595.44;;;23.30;36.60
74895;BME280;63447;49.446;8.666;2023-05-29T09:08:58;100598.94;;;23.45;36.48
74895;BME280;63447;49.446;8.666;2023-05-29T09:11:24;100594.84;;;23.57;36.65
74895;BME280;63447;49.446;8.666;2023-05-29T09:13:51;100599.53;;;23.74;36.68
74895;BME280;63447;49.446;8.666;2023-05-29T09:16:17;100595.81;;;23.84;37.17
74895;BME280;63447;49.446;8.666;2023-05-29T09:18:45;100582.44;;;23.92;37.04
74895;BME280;63447;49.446;8.666;2023-05-29T09:21:27;100589.63;;;23.96;36.26
74895;BME280;63447;49.446;8.666;2023-05-29T09:23:54;100588.00;;;23.99;35.31
74895;BME280;63447;49.446;8.666;2023-05-29T09:26:22;100583.84;;;24.14;35.25
74895;BME280;63447;49.446;8.666;2023-05-29T09:28:52;100570.81;;;24.24;33.65
74895;BME280;63447;49.446;8.666;2023-05-29T09:31:18;100595.13;;;24.48;34.09
74895;BME280;63447;49.446;8.666;2023-05-29T09:33:50;100586.22;;;24.84;36.46
74895;BME280;63447;49.446;8.666;2023-05-29T09:36:20;100580.47;;;24.91;32.82
74895;BME280;63447;49.446;8.666;2023-05-29T09:38:47;100586.53;;;25.20;32.21
74895;BME280;63447;49.446;8.666;2023-05-29T09:41:12;100592.88;;;25.51;31.35
74895;BME280;63447;49.446;8.666;2023-05-29T09:43:38;100593.59;;;25.31;30.27
74895;BME280;63447;49.446;8.666;2023-05-29T09:46:06;100582.94;;;25.43;30.14
74895;BME280;63447;49.446;8.666;2023-05-29T09:48:34;100579.47;;;25.31;30.45
74895;BME280;63447;49.446;8.666;2023-05-29T09:51:02;100584.16;;;25.68;30.41
74895;BME280;63447;49.446;8.666;2023-05-29T09:53:27;100591.19;;;25.80;29.15
74895;BME280;63447;49.446;8.666;2023-05-29T09:55:58;100592.31;;;25.86;29.20
74895;BME280;63447;49.446;8.666;2023-05-29T09:58:25;100596.13;;;25.76;29.41
74895;BME280;63447;49.446;8.666;2023-05-29T10:00:51;100579.72;;;25.67;29.07
74895;BME280;63447;49.446;8.666;2023-05-29T10:03:17;100594.50;;;25.75;30.44
74895;BME280;63447;49.446;8.666;2023-05-29T10:05:47;100599.16;;;25.62;28.51
74895;BME280;63447;49.446;8.666;2023-05-29T10:08:13;100594.22;;;25.93;29.29
74895;BME280;63447;49.446;8.666;2023-05-29T10:10:48;100592.41;;;26.02;29.96
74895;BME280;63447;49.446;8.666;2023-05-29T10:13:17;100590.19;;;26.14;29.03
74895;BME280;63447;49.446;8.666;2023-05-29T10:15:45;100587.84;;;26.09;28.05
74895;BME280;63447;49.446;8.666;2023-05-29T10:18:31;100578.69;;;26.44;29.42
74895;BME280;63447;49.446;8.666;2023-05-29T10:21:00;100568.84;;;25.89;27.79
74895;BME280;63447;49.446;8.666;2023-05-29T10:23:28;100572.84;;;26.12;27.41
74895;BME280;63447;49.446;8.666;2023-05-29T10:26:21;100582.16;;;26.52;30.24
74895;BME280;63447;49.446;8.666;2023-05-29T10:28:55;100578.63;;;26.48;26.91
74895;BME280;63447;49.446;8.666;2023-05-29T10:31:28;100564.34;;;26.35;28.10
74895;BME280;63447;49.446;8.666;2023-05-29T10:34:18;100565.44;;;26.77;28.73
74895;BME280;63447;49.446;8.666;2023-05-29T10:36:52;100577.00;;;26.66;27.88
74895;BME280;63447;49.446;8.666;2023-05-29T10:39:21;100571.56;;;26.76;27.48
74895;BME280;63447;49.446;8.666;2023-05-29T10:41:47;100565.97;;;27.08;27.39
74895;BME280;63447;49.446;8.666;2023-05-29T10:49:26;100568.47;;;27.55;27.85
74895;BME280;63447;49.446;8.666;2023-05-29T10:51:54;100555.19;;;27.35;26.38
74895;BME280;63447;49.446;8.666;2023-05-29T10:54:23;100559.47;;;27.60;26.04
74895;BME280;63447;49.446;8.666;2023-05-29T10:56:56;100559.47;;;27.76;26.65
74895;BME280;63447;49.446;8.666;2023-05-29T10:59:22;100554.66;;;27.89;27.05
74895;BME280;63447;49.446;8.666;2023-05-29T11:01:52;100557.94;;;27.55;25.46
74895;BME280;63447;49.446;8.666;2023-05-29T11:06:51;100541.75;;;27.40;24.95
74895;BME280;63447;49.446;8.666;2023-05-29T11:15:08;100561.50;;;28.21;26.13
74895;BME280;63447;49.446;8.666;2023-05-29T11:20:06;100557.88;;;27.75;25.20
74895;BME280;63447;49.446;8.666;2023-05-29T11:25:24;100564.75;;;28.19;24.34
74895;BME280;63447;49.446;8.666;2023-05-29T11:27:50;100555.66;;;28.41;23.04
74895;BME280;63447;49.446;8.666;2023-05-29T11:30:18;100546.66;;;28.00;22.97
74895;BME280;63447;49.446;8.666;2023-05-29T11:32:45;100560.97;;;28.26;24.33
74895;BME280;63447;49.446;8.666;2023-05-29T11:35:13;100556.81;;;28.43;22.89
74895;BME280;63447;49.446;8.666;2023-05-29T11:37:42;100559.06;;;28.90;23.51
74895;BME280;63447;49.446;8.666;2023-05-29T11:40:11;100567.59;;;29.15;23.47
74895;BME280;63447;49.446;8.666;2023-05-29T11:42:41;100554.88;;;28.82;21.55
74895;BME280;63447;49.446;8.666;2023-05-29T11:45:16;100555.94;;;28.71;21.85
74895;BME280;63447;49.446;8.666;2023-05-29T11:50:20;100559.19;;;28.99;22.51
74895;BME280;63447;49.446;8.666;2023-05-29T11:52:49;100542.09;;;28.74;23.45
74895;BME280;63447;49.446;8.666;2023-05-29T11:55:20;100555.78;;;28.91;23.10
74895;BME280;63447;49.446;8.666;2023-05-29T11:57:51;100538.19;;;29.69;21.87
74895;BME280;63447;49.446;8.666;2023-05-29T12:00:17;100534.97;;;29.20;21.83
74895;BME280;63447;49.446;8.666;2023-05-29T12:02:44;100516.78;;;28.79;22.15
74895;BME280;63447;49.446;8.666;2023-05-29T12:05:15;100539.75;;;27.85;23.30
74895;BME280;63447;49.446;8.666;2023-05-29T12:07:51;100552.94;;;29.04;22.11
74895;BME280;63447;49.446;8.666;2023-05-29T12:10:18;100545.53;;;29.45;20.99
74895;BME280;63447;49.446;8.666;2023-05-29T12:12:58;100549.50;;;29.94;21.91
74895;BME280;63447;49.446;8.666;2023-05-29T12:15:25;100559.97;;;29.12;22.10
74895;BME280;63447;49.446;8.666;2023-05-29T12:17:51;100542.09;;;29.97;21.47
74895;BME280;63447;49.446;8.666;2023-05-29T12:20:18;100533.50;;;30.53;21.11
74895;BME280;63447;49.446;8.666;2023-05-29T12:22:44;100538.06;;;29.73;23.11
74895;BME280;63447;49.446;8.666;2023-05-29T12:27:39;100542.31;;;30.68;20.71
74895;BME280;63447;49.446;8.666;2023-05-29T12:30:19;100549.34;;;29.76;22.79
74895;BME280;63447;49.446;8.666;2023-05-29T12:32:47;100539.47;;;30.02;20.67
74895;BME280;63447;49.446;8.666;2023-05-29T12:35:28;100545.50;;;30.48;21.86
74895;BME280;63447;49.446;8.666;2023-05-29T12:38:01;100541.97;;;30.97;19.95
74895;BME280;63447;49.446;8.666;2023-05-29T12:40:28;100539.72;;;31.23;19.37
74895;BME280;63447;49.446;8.666;2023-05-29T12:42:56;100528.44;;;31.10;18.68
74895;BME280;63447;49.446;8.666;2023-05-29T12:45:27;100535.00;;;29.67;22.56
74895;BME280;63447;49.446;8.666;2023-05-29T12:47:57;100527.78;;;29.53;23.11
74895;BME280;63447;49.446;8.666;2023-05-29T12:50:23;100528.63;;;30.10;21.14
74895;BME280;63447;49.446;8.666;2023-05-29T12:53:06;100527.44;;;31.04;21.14
74895;BME280;63447;49.446;8.666;2023-05-29T12:55:34;100524.59;;;31.53;21.67
74895;BME280;63447;49.446;8.666;2023-05-29T12:58:04;100518.66;;;31.20;20.17
74895;BME280;63447;49.446;8.666;2023-05-29T13:00:30;100525.38;;;31.54;21.88
74895;BME280;63447;49.446;8.666;2023-05-29T13:02:58;100506.50;;;31.47;21.03
74895;BME280;63447;49.446;8.666;2023-05-29T13:05:26;100526.34;;;30.70;22.01
74895;BME280;63447;49.446;8.666;2023-05-29T13:07:52;100527.06;;;30.09;22.02
74895;BME280;63447;49.446;8.666;2023-05-29T13:10:20;100520.41;;;31.27;20.10
74895;BME280;63447;49.446;8.666;2023-05-29T13:12:46;100529.41;;;30.54;21.77
74895;BME280;63447;49.446;8.666;2023-05-29T13:15:13;100526.59;;;31.25;20.13
74895;BME280;63447;49.446;8.666;2023-05-29T13:17:39;100518.09;;;31.53;20.13
74895;BME280;63447;49.446;8.666;2023-05-29T13:22:33;100519.88;;;31.10;19.02
74895;BME280;63447;49.446;8.666;2023-05-29T13:24:58;100510.09;;;31.69;19.18
74895;BME280;63447;49.446;8.666;2023-05-29T13:27:27;100507.25;;;31.20;20.50
74895;BME280;63447;49.446;8.666;2023-05-29T13:29:53;100505.75;;;31.65;19.90
74895;BME280;63447;49.446;8.666;2023-05-29T13:32:21;100505.41;;;31.45;19.25